Curran, Michigan
Current Conditions -  °F | °C
As of 7:54 AM on Wednesday 22 Oct 2014 (Local Time) from KAPN Reporting Station
Overcast Overcast  
Wind Chill: 37°   Ceiling: 2000
Heat Index: 40°   Visibility: 10mi
Dew Point: 34°   Wind: 5mph
Humidity: 79%   Direction: 350°N
Pressure: 30.37"   Gusts: NA
Location:  44.71°N, 83.81°W
Report Text: KAPN 221154Z AUTO 35004KT 10SM OVC020 04/01 A3037 RMK AO2 SLP292 T00440011 10050 20039 53012
Loading
Personal Weather Stations






























Interactive Weather Map
Tropical Storm Tracking
New forecast layout! Learn more

10-Day Weather Forecast

Advertisements
Track Severe Weather on mobile